Time;durP1;ratioP1;P1;durP2;ratioP2;P2;SDS_P1;SDS_P2;PMS_P1;PMS_P2;Temp;Humidity;BMP_temperature;BMP_pressure;BME280_temperature;BME280_humidity;BME280_pressure;Samples;Min_cycle;Max_cycle;Signal;HPM_P1;HPM_P2
2021/05/25 00:00:20;;;;;;;6.75;1.87;;;;;;;12.32;63.60;99877.72;4419548;32;20045;-75
2021/05/25 00:02:47;;;;;;;10.40;2.20;;;;;;;12.49;62.47;99881.00;4416702;32;20069;-75
2021/05/25 00:05:16;;;;;;;13.20;2.60;;;;;;;12.44;63.66;99882.44;4406026;32;20064;-74
2021/05/25 00:07:42;;;;;;;7.15;1.70;;;;;;;12.49;63.54;99881.00;4420058;32;20472;-74
2021/05/25 00:10:09;;;;;;;5.03;1.50;;;;;;;12.55;62.32;99888.34;4418992;32;20460;-74
2021/05/25 00:12:35;;;;;;;5.68;1.87;;;;;;;12.60;61.43;99892.59;4417681;32;20415;-74
2021/05/25 00:15:04;;;;;;;8.13;2.10;;;;;;;12.43;61.92;99894.97;4420522;32;20030;-74
2021/05/25 00:17:30;;;;;;;6.00;1.70;;;;;;;12.59;61.94;99888.22;4419210;32;20634;-75
2021/05/25 00:19:56;;;;;;;6.15;1.50;;;;;;;12.55;62.05;99902.47;4417712;32;20100;-75
2021/05/25 00:22:22;;;;;;;7.28;1.90;;;;;;;12.56;61.75;99892.75;4418549;32;20074;-75
2021/05/25 00:24:47;;;;;;;4.28;1.50;;;;;;;12.58;62.13;99886.66;4420311;32;20487;-75
2021/05/25 00:27:13;;;;;;;4.70;1.55;;;;;;;12.63;61.18;99883.16;4418653;32;20128;-74
2021/05/25 00:29:39;;;;;;;7.60;1.92;;;;;;;12.70;61.01;99886.44;4419373;32;20096;-75
2021/05/25 00:32:05;;;;;;;5.15;2.08;;;;;;;12.76;61.00;99887.37;4418424;32;20068;-74
2021/05/25 00:34:31;;;;;;;5.72;1.80;;;;;;;12.77;61.04;99886.16;4419455;32;20352;-74
2021/05/25 00:36:56;;;;;;;6.30;1.90;;;;;;;12.68;61.44;99891.00;4421054;32;20085;-74
2021/05/25 00:39:22;;;;;;;7.40;2.17;;;;;;;12.75;61.27;99888.66;4418608;32;20060;-74
2021/05/25 00:41:47;;;;;;;5.80;1.67;;;;;;;12.81;61.36;99888.78;4419096;32;20049;-76
2021/05/25 00:44:14;;;;;;;4.85;1.75;;;;;;;12.85;61.17;99884.53;4421675;32;20123;-74
2021/05/25 00:46:40;;;;;;;8.55;2.35;;;;;;;12.86;60.96;99885.34;4419160;32;20447;-75
2021/05/25 00:49:06;;;;;;;7.62;2.47;;;;;;;12.68;62.18;99896.66;4418145;32;20351;-75
2021/05/25 00:51:33;;;;;;;5.93;2.40;;;;;;;12.73;61.78;99888.34;4416535;32;20433;-74
2021/05/25 00:53:59;;;;;;;5.15;2.30;;;;;;;12.79;61.61;99892.09;4419890;32;20093;-74
2021/05/25 00:56:25;;;;;;;6.25;1.77;;;;;;;12.72;61.74;99885.97;4423369;32;20407;-74
2021/05/25 00:58:51;;;;;;;6.50;2.03;;;;;;;12.81;61.57;99897.25;4420685;32;20038;-74
2021/05/25 01:01:18;;;;;;;4.70;2.00;;;;;;;12.73;61.90;99891.16;4411650;32;20056;-74
2021/05/25 01:03:43;;;;;;;5.90;2.17;;;;;;;12.80;61.50;99893.66;4425379;32;20109;-75
2021/05/25 01:06:09;;;;;;;10.32;2.10;;;;;;;12.86;61.37;99885.34;4424774;32;20081;-74
2021/05/25 01:08:37;;;;;;;6.18;2.03;;;;;;;12.93;61.17;99899.91;4409528;32;20063;-74
2021/05/25 01:11:06;;;;;;;5.37;2.03;;;;;;;12.90;61.27;99903.69;4420791;32;20042;-74
2021/05/25 01:13:40;;;;;;;8.63;2.58;;;;;;;12.89;61.17;99906.97;4418444;32;20054;-75
2021/05/25 01:16:07;;;;;;;7.20;2.28;;;;;;;12.91;61.65;99905.22;4421319;32;20085;-74
2021/05/25 01:18:32;;;;;;;6.47;2.47;;;;;;;12.90;61.98;99898.03;4422497;32;20046;-75
2021/05/25 01:20:58;;;;;;;4.90;2.10;;;;;;;12.88;62.11;99906.19;4410194;32;20063;-75
2021/05/25 01:23:24;;;;;;;5.60;2.08;;;;;;;12.87;62.30;99907.44;4421788;32;20115;-74
2021/05/25 01:25:51;;;;;;;2.75;1.70;;;;;;;12.85;61.89;99904.31;4426729;32;20038;-74
2021/05/25 01:28:20;;;;;;;12.37;2.60;;;;;;;12.85;62.27;99909.94;4421225;32;20046;-75
2021/05/25 01:30:50;;;;;;;5.50;2.12;;;;;;;12.74;62.57;99898.38;4419275;32;20045;-74
2021/05/25 01:33:17;;;;;;;5.50;2.20;;;;;;;12.88;62.30;99905.38;4425454;32;20856;-74
2021/05/25 01:35:43;;;;;;;6.40;2.05;;;;;;;12.82;62.85;99915.78;4421929;32;20074;-75
2021/05/25 01:38:11;;;;;;;4.20;1.90;;;;;;;12.79;62.77;99916.72;4420512;32;20436;-76
2021/05/25 01:40:38;;;;;;;6.22;1.95;;;;;;;12.75;62.74;99913.25;4424379;32;20086;-75
2021/05/25 01:43:04;;;;;;;6.05;2.12;;;;;;;12.76;62.79;99915.63;4422982;32;20050;-75
2021/05/25 01:45:31;;;;;;;7.57;2.20;;;;;;;12.81;62.41;99915.00;4420070;32;20101;-75
2021/05/25 01:47:59;;;;;;;6.00;1.75;;;;;;;12.95;62.29;99916.38;4421707;32;20093;-74
2021/05/25 01:50:26;;;;;;;9.02;2.15;;;;;;;13.01;61.89;99911.69;4420317;32;20033;-75
2021/05/25 02:00:57;;;;;;;5.85;1.52;;;;;;;13.58;60.13;99916.94;3983417;32;15026674;-75
2021/05/25 02:03:23;;;;;;;4.28;1.27;;;;;;;13.58;60.13;99916.94;4436790;32;20365;-75
2021/05/25 02:05:49;;;;;;;3.15;1.20;;;;;;;13.00;61.61;99915.75;4435548;32;20091;-75
2021/05/25 02:08:17;;;;;;;3.12;0.98;;;;;;;12.98;61.74;99919.00;4438071;32;20105;-74
2021/05/25 02:10:48;;;;;;;14.38;1.73;;;;;;;13.04;61.20;99925.63;4432791;32;20070;-75
2021/05/25 02:13:16;;;;;;;3.67;1.17;;;;;;;13.02;61.44;99930.19;4434269;32;20405;-74
2021/05/25 02:15:44;;;;;;;4.85;0.90;;;;;;;12.95;61.95;99939.72;4436819;32;20440;-75
2021/05/25 02:18:13;;;;;;;4.82;1.10;;;;;;;13.04;61.54;99934.09;4432321;32;20101;-75
2021/05/25 02:20:40;;;;;;;5.32;1.10;;;;;;;12.97;61.74;99925.13;4434508;32;20534;-74
2021/05/25 02:23:06;;;;;;;2.55;1.00;;;;;;;12.80;61.46;99930.38;4430697;32;20076;-75
2021/05/25 02:25:32;;;;;;;4.15;0.95;;;;;;;12.75;61.92;99942.28;4433803;32;20033;-75
2021/05/25 02:28:00;;;;;;;2.55;1.05;;;;;;;12.94;61.48;99928.91;4435715;32;20111;-75
2021/05/25 02:30:28;;;;;;;5.65;1.50;;;;;;;12.98;61.59;99932.37;4433812;32;20116;-76
2021/05/25 02:32:54;;;;;;;6.03;1.23;;;;;;;13.09;61.00;99927.81;4435020;32;20082;-75
2021/05/25 02:35:20;;;;;;;7.97;1.20;;;;;;;13.11;61.15;99928.12;4433338;32;20065;-74
2021/05/25 02:37:46;;;;;;;6.95;0.90;;;;;;;13.17;60.76;99928.25;4432718;32;20114;-74
2021/05/25 02:40:12;;;;;;;12.05;1.12;;;;;;;13.24;60.59;99925.87;4430664;32;20030;-74
2021/05/25 02:42:38;;;;;;;8.02;1.00;;;;;;;13.26;60.56;99937.47;4431393;32;20139;-74
2021/05/25 02:45:05;;;;;;;6.55;1.45;;;;;;;13.40;60.18;99933.97;4436990;32;20414;-75
2021/05/25 02:47:31;;;;;;;7.32;1.00;;;;;;;13.36;60.63;99936.19;4433674;32;20065;-74
2021/05/25 02:50:06;;;;;;;6.10;1.15;;;;;;;13.27;60.42;99939.06;4434421;32;20145;-75
2021/05/25 02:52:38;;;;;;;4.95;1.00;;;;;;;13.29;60.77;99930.09;4431835;32;20090;-75
2021/05/25 02:55:07;;;;;;;2.28;0.80;;;;;;;13.32;60.34;99923.50;4432533;32;20089;-74
2021/05/25 02:57:33;;;;;;;3.90;0.82;;;;;;;13.24;60.86;99925.87;4436604;32;20059;-75
2021/05/25 02:59:59;;;;;;;3.30;0.90;;;;;;;13.22;60.73;99938.91;4432434;32;20086;-74
2021/05/25 03:02:25;;;;;;;4.80;0.90;;;;;;;13.09;61.34;99939.09;4431668;32;20512;-75
2021/05/25 03:04:50;;;;;;;6.72;0.77;;;;;;;13.09;61.52;99922.16;4434016;32;20029;-75
2021/05/25 03:07:16;;;;;;;7.87;1.08;;;;;;;13.02;61.96;99935.84;4432841;32;20065;-75
2021/05/25 03:09:42;;;;;;;8.02;1.00;;;;;;;12.84;61.74;99928.16;4433562;32;20057;-75
2021/05/25 03:12:08;;;;;;;3.55;0.80;;;;;;;12.91;62.53;99932.69;4423193;32;20096;-74
2021/05/25 03:14:35;;;;;;;4.75;0.62;;;;;;;12.82;63.28;99938.38;4422005;32;20339;-75
2021/05/25 03:17:01;;;;;;;3.22;1.00;;;;;;;12.75;63.92;99935.84;4425520;32;20014;-74
2021/05/25 03:19:28;;;;;;;3.72;0.37;;;;;;;12.79;63.95;99944.97;4423930;32;20524;-74
2021/05/25 03:21:53;;;;;;;5.62;0.90;;;;;;;12.61;64.33;99937.28;4423855;32;20013;-74
2021/05/25 03:24:21;;;;;;;4.40;0.70;;;;;;;12.45;65.23;99948.88;4421558;32;20093;-75
2021/05/25 03:26:47;;;;;;;4.12;0.60;;;;;;;12.57;64.95;99938.69;4423321;32;20077;-75
2021/05/25 03:29:13;;;;;;;2.53;0.60;;;;;;;12.59;65.04;99948.28;4425580;32;20053;-74
2021/05/25 03:31:38;;;;;;;4.18;0.73;;;;;;;12.48;65.31;99945.13;4419462;32;20107;-74
2021/05/25 03:34:05;;;;;;;1.00;0.30;;;;;;;12.52;64.99;99950.63;4421555;32;20379;-74
2021/05/25 03:36:31;;;;;;;4.78;1.17;;;;;;;12.47;65.68;99948.41;4424876;32;20046;-75
2021/05/25 03:38:57;;;;;;;3.87;0.40;;;;;;;12.36;66.24;99951.69;4423419;32;20049;-76
2021/05/25 03:41:23;;;;;;;1.62;0.30;;;;;;;12.25;66.58;99945.75;4422325;32;20097;-74
2021/05/25 03:43:48;;;;;;;4.75;0.85;;;;;;;12.37;66.36;99964.56;4424900;32;20100;-76
2021/05/25 03:46:14;;;;;;;6.18;0.82;;;;;;;12.32;66.33;99948.25;4422367;32;20371;-76
2021/05/25 03:48:40;;;;;;;5.32;0.60;;;;;;;12.49;65.96;99951.56;4426109;32;20531;-75
2021/05/25 03:51:06;;;;;;;4.05;0.70;;;;;;;12.50;65.85;99959.56;4421611;32;20460;-76
2021/05/25 03:53:31;;;;;;;3.12;0.62;;;;;;;12.43;65.64;99957.06;4420729;32;20460;-76
2021/05/25 03:58:50;;;;;;;4.00;0.62;;;;;;;12.55;65.12;99967.38;4009701;31;15016982;-75
2021/05/25 04:01:25;;;;;;;1.67;0.60;;;;;;;12.41;65.58;99964.41;4463663;32;20415;-76
2021/05/25 04:03:52;;;;;;;4.68;0.90;;;;;;;12.44;65.60;99958.62;4450616;32;20416;-76
2021/05/25 04:06:19;;;;;;;3.83;0.57;;;;;;;12.41;65.62;99961.59;4449978;32;20097;-75
2021/05/25 04:08:45;;;;;;;2.25;0.70;;;;;;;12.47;65.75;99959.69;4450122;32;20090;-75
2021/05/25 04:11:12;;;;;;;5.18;0.80;;;;;;;12.46;65.98;99964.59;4452896;32;20041;-75
2021/05/25 04:13:38;;;;;;;3.37;0.80;;;;;;;12.53;66.25;99967.09;4452612;32;20045;-76
2021/05/25 04:16:04;;;;;;;6.12;1.00;;;;;;;12.64;65.98;99958.91;4452158;32;20254;-75
2021/05/25 04:18:29;;;;;;;9.48;1.15;;;;;;;12.59;66.99;99959.56;4453678;32;20459;-74
2021/05/25 04:20:56;;;;;;;10.07;1.25;;;;;;;12.62;67.17;99963.47;4449410;32;20045;-75
2021/05/25 04:23:22;;;;;;;3.28;0.90;;;;;;;12.58;67.29;99966.44;4453037;32;20439;-74
2021/05/25 04:25:48;;;;;;;13.43;1.12;;;;;;;12.37;67.92;99975.88;4452807;32;20053;-75
2021/05/25 04:28:15;;;;;;;5.15;1.50;;;;;;;12.43;67.93;99965.53;4441397;32;20093;-77
2021/05/25 04:30:41;;;;;;;4.97;1.00;;;;;;;12.34;67.95;99970.37;4447994;32;20765;-77
2021/05/25 04:33:07;;;;;;;9.07;1.30;;;;;;;12.32;67.63;99970.84;4453708;32;20078;-74
2021/05/25 04:35:33;;;;;;;6.82;1.17;;;;;;;12.41;67.24;99972.88;4449849;32;20081;-74
2021/05/25 04:37:59;;;;;;;7.00;1.70;;;;;;;12.44;66.70;99974.75;4449744;32;20112;-76
2021/05/25 04:40:26;;;;;;;11.90;1.35;;;;;;;12.44;66.21;99980.41;4452293;32;20045;-74
2021/05/25 04:42:52;;;;;;;9.18;1.27;;;;;;;12.51;66.07;99989.34;4448941;32;20084;-76
2021/05/25 04:45:18;;;;;;;9.00;1.33;;;;;;;12.52;65.87;99985.25;4453099;32;20020;-76
2021/05/25 04:47:44;;;;;;;7.07;1.30;;;;;;;12.53;65.79;99998.12;4454058;32;20457;-75
2021/05/25 04:50:11;;;;;;;4.22;0.90;;;;;;;12.41;66.26;100001.88;4450530;32;20034;-75
2021/05/25 04:52:38;;;;;;;7.55;1.55;;;;;;;12.55;65.89;100003.31;4450042;32;20375;-76
2021/05/25 04:55:05;;;;;;;5.47;1.08;;;;;;;12.55;65.99;100006.87;4448900;32;20057;-74
2021/05/25 04:57:31;;;;;;;2.83;0.93;;;;;;;12.62;66.38;100014.28;4451316;32;20067;-74
2021/05/25 04:59:57;;;;;;;8.07;1.17;;;;;;;12.73;65.92;100006.91;4451361;32;20453;-74
2021/05/25 05:02:23;;;;;;;6.20;1.00;;;;;;;12.82;65.41;100025.91;4452896;32;20149;-75
2021/05/25 05:04:49;;;;;;;3.87;0.90;;;;;;;12.90;65.30;100015.84;4451609;32;20041;-76
2021/05/25 05:07:15;;;;;;;4.32;0.70;;;;;;;12.91;65.20;100015.38;4449117;32;20091;-75
2021/05/25 05:09:41;;;;;;;3.35;1.02;;;;;;;12.83;65.66;100028.25;4443618;32;20081;-75
2021/05/25 05:12:07;;;;;;;5.57;1.02;;;;;;;12.90;65.12;100033.56;4429326;32;20461;-74
2021/05/25 05:14:33;;;;;;;3.62;0.65;;;;;;;13.02;64.64;100034.69;4438956;32;20034;-75
2021/05/25 05:16:58;;;;;;;4.43;0.85;;;;;;;13.01;64.47;100035.94;4440153;32;20088;-76
2021/05/25 05:19:25;;;;;;;2.62;0.82;;;;;;;13.12;64.68;100041.88;4437441;32;20064;-74
2021/05/25 05:21:50;;;;;;;2.10;0.68;;;;;;;13.00;65.53;100048.50;4431362;32;20155;-75
2021/05/25 05:24:16;;;;;;;4.90;0.80;;;;;;;12.86;66.60;100043.47;4439085;32;20055;-76
2021/05/25 05:26:42;;;;;;;7.35;1.15;;;;;;;12.80;67.26;100051.78;4439323;32;20106;-76
2021/05/25 05:29:08;;;;;;;5.30;1.10;;;;;;;12.68;67.63;100051.91;4443234;32;20184;-75
2021/05/25 05:31:34;;;;;;;3.33;0.75;;;;;;;12.76;68.15;100051.13;4438995;32;20088;-74
2021/05/25 05:34:00;;;;;;;6.07;1.12;;;;;;;12.78;67.44;100056.31;4442084;32;20069;-76
2021/05/25 05:36:26;;;;;;;3.35;0.75;;;;;;;12.94;67.08;100056.00;4440412;32;20132;-75
2021/05/25 05:38:51;;;;;;;3.67;0.90;;;;;;;13.01;66.88;100050.84;4438040;32;20057;-76
2021/05/25 05:41:17;;;;;;;6.37;1.20;;;;;;;12.87;66.32;100057.09;4444728;32;20096;-74
2021/05/25 05:43:43;;;;;;;5.72;0.95;;;;;;;12.86;66.56;100054.75;4442115;32;20073;-74
2021/05/25 05:46:09;;;;;;;6.55;1.02;;;;;;;12.80;66.64;100053.81;4439262;32;20041;-76
2021/05/25 05:48:36;;;;;;;4.40;1.10;;;;;;;12.77;66.35;100055.53;4439235;32;20059;-76
2021/05/25 05:51:02;;;;;;;6.30;0.95;;;;;;;12.69;66.82;100059.12;4436597;32;20029;-73
2021/05/25 05:53:28;;;;;;;3.30;0.82;;;;;;;12.82;65.90;100065.44;4437887;32;20045;-75
2021/05/25 05:55:53;;;;;;;4.07;0.70;;;;;;;12.74;66.26;100058.50;4441069;32;20129;-73
2021/05/25 05:58:19;;;;;;;3.92;0.70;;;;;;;12.96;65.14;100068.41;4438612;32;20089;-75
2021/05/25 06:00:45;;;;;;;4.90;0.98;;;;;;;13.03;64.73;100059.62;4439544;32;20186;-74
2021/05/25 06:03:11;;;;;;;3.90;0.98;;;;;;;13.27;64.94;100062.59;4439448;32;20097;-76
2021/05/25 06:05:37;;;;;;;5.65;0.88;;;;;;;13.44;63.71;100075.91;4438379;32;20484;-74
2021/05/25 06:08:05;;;;;;;9.55;1.20;;;;;;;13.44;62.69;100069.47;4438721;32;20064;-76
2021/05/25 06:10:32;;;;;;;3.97;0.90;;;;;;;13.60;62.75;100075.53;4442347;32;20045;-75
2021/05/25 06:12:58;;;;;;;3.20;0.70;;;;;;;13.69;61.92;100075.53;4444259;32;20056;-76
2021/05/25 06:15:25;;;;;;;6.90;1.08;;;;;;;13.84;60.88;100070.75;4438092;32;20082;-76
2021/05/25 06:17:51;;;;;;;4.32;0.88;;;;;;;13.94;61.05;100080.00;4437223;32;20025;-75
2021/05/25 06:20:18;;;;;;;7.00;1.10;;;;;;;14.01;60.69;100077.63;4439437;32;20085;-75
2021/05/25 06:22:43;;;;;;;6.30;1.30;;;;;;;14.28;60.38;100087.25;4440840;32;20099;-75
2021/05/25 06:25:10;;;;;;;4.22;1.00;;;;;;;14.41;59.80;100084.97;4441080;32;20097;-75
2021/05/25 06:27:37;;;;;;;7.03;1.33;;;;;;;14.52;59.75;100083.22;4438027;32;20101;-73
2021/05/25 06:30:05;;;;;;;6.30;1.08;;;;;;;14.64;59.22;100087.06;4439030;32;20222;-75
2021/05/25 06:32:35;;;;;;;9.75;0.90;;;;;;;14.58;59.55;100089.78;4434988;32;20097;-76
2021/05/25 06:35:01;;;;;;;7.12;1.10;;;;;;;14.54;59.00;100091.22;4436173;32;20041;-74
2021/05/25 06:37:27;;;;;;;5.03;1.45;;;;;;;14.60;59.20;100094.97;4433835;32;20097;-75
2021/05/25 06:39:53;;;;;;;9.18;1.30;;;;;;;14.50;60.32;100107.59;4435335;32;20076;-74
2021/05/25 06:42:19;;;;;;;4.53;1.40;;;;;;;14.20;61.48;100105.84;4428992;32;20143;-73
2021/05/25 06:44:44;;;;;;;7.87;1.48;;;;;;;13.78;63.64;100114.31;4431364;32;20460;-77
2021/05/25 06:47:10;;;;;;;7.05;1.10;;;;;;;13.39;66.22;100118.16;4432753;32;20097;-75
2021/05/25 06:49:35;;;;;;;3.90;1.20;;;;;;;13.08;67.70;100123.19;4428210;32;20481;-74
2021/05/25 06:52:01;;;;;;;5.20;1.15;;;;;;;13.05;68.50;100119.28;4431965;32;20088;-75
2021/05/25 06:54:29;;;;;;;5.20;1.17;;;;;;;13.09;67.85;100125.53;4430304;32;20157;-75
2021/05/25 06:56:57;;;;;;;10.68;1.50;;;;;;;13.07;68.51;100127.28;4417125;32;21145;-74
2021/05/25 06:59:23;;;;;;;6.95;1.20;;;;;;;13.14;68.73;100122.09;4432874;32;20473;-75
2021/05/25 07:01:49;;;;;;;5.12;1.17;;;;;;;13.20;67.53;100122.25;4412073;32;20414;-75
2021/05/25 07:04:14;;;;;;;4.87;1.40;;;;;;;13.24;67.83;100120.84;4432793;32;20041;-75
2021/05/25 07:06:40;;;;;;;7.30;1.48;;;;;;;13.31;67.15;100122.53;4431831;32;20141;-75
2021/05/25 07:09:06;;;;;;;5.75;2.22;;;;;;;13.42;67.11;100131.34;4429538;32;20049;-74
2021/05/25 07:11:32;;;;;;;10.23;1.37;;;;;;;13.36;67.17;100121.94;4431198;32;20406;-75
2021/05/25 07:13:58;;;;;;;6.53;1.42;;;;;;;13.43;66.73;100130.06;4432128;32;20115;-76
2021/05/25 07:16:25;;;;;;;8.30;1.77;;;;;;;13.33;65.92;100125.69;4426362;32;20100;-76
2021/05/25 07:18:51;;;;;;;8.60;1.65;;;;;;;13.29;66.04;100136.38;4427726;32;21190;-75
2021/05/25 07:21:16;;;;;;;8.73;1.75;;;;;;;13.28;64.78;100138.41;4426551;32;20200;-75
2021/05/25 07:23:42;;;;;;;8.27;1.58;;;;;;;13.28;66.07;100132.75;4425746;32;20101;-76
2021/05/25 07:26:07;;;;;;;7.12;1.12;;;;;;;13.42;65.58;100148.28;4428039;32;20090;-75
2021/05/25 07:28:33;;;;;;;12.70;1.30;;;;;;;13.48;64.58;100158.50;4427510;32;20527;-75
2021/05/25 07:30:59;;;;;;;13.55;1.85;;;;;;;13.46;64.04;100161.00;4427285;32;20106;-75
2021/05/25 07:33:26;;;;;;;10.55;1.70;;;;;;;13.57;63.62;100161.31;4426313;32;20139;-75
2021/05/25 07:35:52;;;;;;;10.05;1.52;;;;;;;13.72;63.41;100156.56;4428551;32;20037;-74
2021/05/25 07:38:19;;;;;;;11.57;1.40;;;;;;;13.84;62.48;100157.66;4428312;32;20511;-74
2021/05/25 07:40:45;;;;;;;8.00;1.65;;;;;;;13.95;62.49;100158.72;4427101;32;20103;-74
2021/05/25 07:43:11;;;;;;;7.15;1.45;;;;;;;13.96;61.83;100160.28;4430258;32;20473;-74
2021/05/25 07:45:36;;;;;;;7.87;1.85;;;;;;;14.11;61.06;100173.78;4427932;32;20042;-76
2021/05/25 07:48:03;;;;;;;4.25;1.00;;;;;;;14.23;60.83;100167.94;4429211;32;20290;-76
2021/05/25 07:50:29;;;;;;;8.95;1.65;;;;;;;14.09;60.28;100175.03;4424802;32;20067;-76
2021/05/25 07:52:56;;;;;;;9.15;1.00;;;;;;;14.07;59.81;100182.44;4424865;32;20100;-76
2021/05/25 07:55:28;;;;;;;5.15;1.40;;;;;;;13.96;59.59;100182.13;4428100;32;20518;-76
2021/05/25 07:57:55;;;;;;;9.60;1.90;;;;;;;13.94;60.13;100185.44;4428370;32;20153;-77
2021/05/25 08:00:22;;;;;;;8.43;1.15;;;;;;;14.02;59.80;100186.69;4415545;32;20071;-76
2021/05/25 08:02:48;;;;;;;8.40;1.92;;;;;;;14.13;59.87;100196.72;4428227;32;20148;-75
2021/05/25 08:05:16;;;;;;;14.35;2.05;;;;;;;14.24;59.69;100202.69;4426793;32;20165;-76
2021/05/25 08:07:41;;;;;;;9.60;1.87;;;;;;;14.32;58.45;100204.69;4431839;32;20227;-76
2021/05/25 08:10:09;;;;;;;8.02;1.67;;;;;;;14.28;58.76;100192.78;4426102;32;20740;-76
2021/05/25 08:12:35;;;;;;;11.77;2.05;;;;;;;14.38;58.74;100202.00;4431508;32;20305;-78
2021/05/25 08:15:02;;;;;;;7.82;1.40;;;;;;;14.46;58.59;100204.03;4419097;32;20088;-74
2021/05/25 08:20:18;;;;;;;11.23;1.40;;;;;;;14.92;57.30;100224.41;3972112;32;15159074;-77
2021/05/25 08:25:25;;;;;;;8.57;1.40;;;;;;;15.31;56.88;100226.84;3956255;32;15025264;-74
2021/05/25 08:27:51;;;;;;;5.32;1.17;;;;;;;15.31;56.88;100226.84;4404401;32;20466;-75
2021/05/25 08:30:20;;;;;;;10.70;1.80;;;;;;;15.02;56.75;100223.09;4403663;32;20169;-73
2021/05/25 08:32:46;;;;;;;8.73;1.35;;;;;;;14.98;57.57;100231.00;4404501;32;20073;-74
2021/05/25 08:35:13;;;;;;;4.28;1.37;;;;;;;14.96;56.76;100233.50;4402080;32;20205;-76
2021/05/25 08:37:39;;;;;;;5.03;1.40;;;;;;;15.21;56.61;100230.22;4410306;32;20493;-74
2021/05/25 08:40:09;;;;;;;7.30;1.55;;;;;;;15.14;56.89;100239.88;4409247;32;20119;-74
2021/05/25 08:42:35;;;;;;;5.32;1.27;;;;;;;15.41;55.49;100242.53;4408245;32;20109;-76
2021/05/25 08:45:06;;;;;;;7.43;1.23;;;;;;;15.44;56.06;100243.63;4410073;32;20149;-75
2021/05/25 08:47:35;;;;;;;9.10;1.42;;;;;;;15.70;54.82;100247.50;4409014;32;20119;-75
2021/05/25 08:50:03;;;;;;;15.70;1.77;;;;;;;15.57;54.80;100247.78;4407915;32;20062;-75
2021/05/25 08:52:30;;;;;;;22.52;2.12;;;;;;;15.43;55.28;100247.72;4407887;32;20636;-76
2021/05/25 08:54:56;;;;;;;8.00;1.62;;;;;;;15.35;55.85;100257.84;4393134;32;20124;-76
2021/05/25 08:57:23;;;;;;;6.47;1.67;;;;;;;15.28;55.88;100252.53;4410767;32;20130;-75
2021/05/25 08:59:48;;;;;;;12.52;2.00;;;;;;;15.25;56.29;100262.00;4407915;32;20053;-75
2021/05/25 09:02:15;;;;;;;8.20;1.33;;;;;;;15.19;56.64;100261.88;4386046;32;20815;-74
2021/05/25 09:05:04;;;;;;;12.45;2.15;;;;;;;15.03;56.76;100267.19;4394913;32;20034;-75
2021/05/25 09:10:22;;;;;;;6.20;1.30;;;;;;;14.86;59.02;100278.13;3918161;32;15026989;-77
2021/05/25 09:12:51;;;;;;;12.63;1.50;;;;;;;14.86;59.02;100278.13;4367258;32;20572;-76
2021/05/25 09:20:48;;;;;;;5.43;1.27;;;;;;;14.42;61.36;100284.72;3969182;32;15022754;-74
2021/05/25 09:23:18;;;;;;;7.85;1.65;;;;;;;14.42;61.36;100284.72;4419011;32;20446;-75
2021/05/25 09:26:00;;;;;;;7.50;1.60;;;;;;;14.00;62.59;100290.28;4417533;32;20041;-74
2021/05/25 09:28:25;;;;;;;13.43;1.55;;;;;;;13.74;62.01;100292.62;4415761;32;20176;-75
2021/05/25 09:30:52;;;;;;;6.60;1.50;;;;;;;13.60;62.05;100293.25;4416713;32;20042;-74
2021/05/25 09:33:20;;;;;;;9.68;1.65;;;;;;;13.48;63.24;100294.19;4416198;32;20064;-75
2021/05/25 09:35:48;;;;;;;9.32;1.80;;;;;;;13.28;64.52;100290.22;4419504;32;20092;-75
2021/05/25 09:38:18;;;;;;;11.40;1.55;;;;;;;13.40;64.22;100292.91;4416503;32;20240;-73
2021/05/25 09:40:47;;;;;;;12.65;2.55;;;;;;;13.50;64.17;100285.25;4413649;32;20073;-75
2021/05/25 09:48:51;;;;;;;12.60;2.20;;;;;;;13.76;62.87;100292.16;3977637;32;15022669;-75
2021/05/25 09:51:26;;;;;;;12.75;2.20;;;;;;;13.97;61.94;100291.22;4426937;32;20105;-75
2021/05/25 09:53:52;;;;;;;14.57;2.30;;;;;;;14.00;61.64;100291.03;4427430;32;20072;-74
2021/05/25 09:59:00;;;;;;;16.12;2.35;;;;;;;14.06;60.92;100296.88;3976418;32;15029929;-75
2021/05/25 10:04:11;;;;;;;13.45;2.42;;;;;;;14.18;60.73;100303.59;3967653;32;15024383;-75
2021/05/25 10:06:40;;;;;;;11.70;2.20;;;;;;;14.18;60.73;100303.59;4418982;32;20084;-75
2021/05/25 10:09:07;;;;;;;10.02;1.67;;;;;;;13.85;60.89;100301.44;4418835;32;20073;-75
2021/05/25 10:11:34;;;;;;;18.42;2.05;;;;;;;13.92;61.34;100295.47;4416277;32;20443;-75
2021/05/25 10:14:00;;;;;;;12.52;2.22;;;;;;;14.09;60.32;100299.53;4415252;32;20347;-75
2021/05/25 10:16:29;;;;;;;12.27;2.33;;;;;;;14.33;60.31;100299.66;4417227;32;20060;-75
2021/05/25 10:19:28;;;;;;;12.25;2.37;;;;;;;14.41;60.78;100300.91;4414085;32;20097;-75
2021/05/25 10:21:44;;;;;;;13.07;2.62;;;;;;;14.79;59.42;100298.28;4412667;32;20042;-76
2021/05/25 10:24:10;;;;;;;14.13;2.05;;;;;;;15.02;57.91;100308.91;4417458;32;20046;-75
2021/05/25 10:26:36;;;;;;;14.48;2.25;;;;;;;15.07;57.03;100305.37;4416782;32;20534;-76
2021/05/25 10:29:05;;;;;;;10.60;2.22;;;;;;;15.03;56.91;100301.97;4415206;32;20105;-75
2021/05/25 10:34:30;;;;;;;13.57;2.30;;;;;;;15.56;56.45;100316.34;3971148;32;15024214;-76
2021/05/25 10:36:59;;;;;;;14.25;2.85;;;;;;;15.56;56.45;100316.34;4423443;32;20077;-75
2021/05/25 10:39:42;;;;;;;10.32;3.25;;;;;;;15.06;58.00;100322.88;4421719;32;20095;-75
2021/05/25 10:45:04;;;;;;;7.45;2.10;;;;;;;14.93;60.99;100330.81;3959039;32;15025197;-75
2021/05/25 10:47:37;;;;;;;14.18;2.83;;;;;;;14.93;60.99;100330.81;4412379;32;20096;-75
2021/05/25 10:50:15;;;;;;;13.75;2.10;;;;;;;14.36;62.51;100312.09;4409735;32;20034;-75
2021/05/25 10:55:40;;;;;;;11.60;2.00;;;;;;;14.76;61.42;100329.63;3990563;31;15018420;-75
2021/05/25 10:58:30;;;;;;;11.77;1.95;;;;;;;14.76;61.42;100329.63;4445950;32;20033;-74
2021/05/25 11:00:58;;;;;;;11.18;2.53;;;;;;;14.05;61.39;100340.56;4445398;32;20085;-77
2021/05/25 11:03:25;;;;;;;14.85;2.28;;;;;;;13.82;62.89;100347.62;4438179;32;20065;-75
2021/05/25 11:08:29;;;;;;;13.88;2.87;;;;;;;13.71;64.82;100347.28;3978114;32;15023902;-75
2021/05/25 11:11:15;;;;;;;11.48;2.60;;;;;;;13.71;64.82;100347.28;4427854;32;20065;-75
2021/05/25 11:13:45;;;;;;;17.15;3.10;;;;;;;13.32;64.90;100347.38;4429695;32;20094;-75
2021/05/25 11:16:34;;;;;;;10.50;2.42;;;;;;;13.46;64.99;100347.56;4431647;32;20045;-76
2021/05/25 11:24:50;;;;;;;11.80;2.47;;;;;;;14.71;60.19;100365.03;3979131;32;15023233;-77
2021/05/25 11:27:46;;;;;;;9.90;2.08;;;;;;;14.71;60.19;100365.03;4430337;32;20077;-75
2021/05/25 11:30:28;;;;;;;13.10;2.28;;;;;;;14.56;60.47;100383.94;4429995;32;20499;-75
2021/05/25 11:32:56;;;;;;;11.30;2.10;;;;;;;14.33;59.99;100361.94;4429512;32;20060;-74
2021/05/25 11:35:26;;;;;;;10.73;2.28;;;;;;;14.43;60.54;100365.56;4427562;32;20073;-75
2021/05/25 11:37:55;;;;;;;14.18;2.28;;;;;;;14.55;59.27;100362.56;4431086;32;20041;-75
2021/05/25 11:40:24;;;;;;;11.38;2.35;;;;;;;14.65;59.32;100361.28;4426930;32;20072;-75
2021/05/25 11:42:52;;;;;;;16.85;2.35;;;;;;;15.02;58.21;100361.94;4424070;32;20038;-75
2021/05/25 11:45:22;;;;;;;12.75;2.50;;;;;;;15.07;58.33;100366.97;4430293;32;20433;-75
2021/05/25 11:47:57;;;;;;;12.82;2.20;;;;;;;15.08;57.21;100351.53;4426211;32;20089;-75
2021/05/25 11:50:24;;;;;;;14.90;3.00;;;;;;;15.27;55.95;100364.34;4425971;32;20099;-75
2021/05/25 11:52:51;;;;;;;14.57;2.75;;;;;;;14.91;56.75;100378.69;4429466;32;20541;-75
2021/05/25 11:55:19;;;;;;;11.38;2.60;;;;;;;14.86;57.20;100380.13;4425836;32;20045;-75
2021/05/25 12:00:23;;;;;;;11.25;2.50;;;;;;;14.65;57.83;100383.94;3945578;32;15724203;-75
2021/05/25 12:02:52;;;;;;;12.30;2.67;;;;;;;14.63;58.03;100385.69;4411757;32;20068;-75
2021/05/25 12:05:22;;;;;;;12.60;2.33;;;;;;;14.66;57.97;100387.56;4414964;32;20063;-75
2021/05/25 12:10:27;;;;;;;14.25;2.17;;;;;;;15.06;56.38;100377.50;3974409;32;15023630;-75
2021/05/25 12:13:03;;;;;;;15.75;2.28;;;;;;;15.15;55.32;100397.31;4427970;32;20084;-75
2021/05/25 12:15:29;;;;;;;16.02;2.05;;;;;;;15.42;54.43;100382.25;4426700;32;21008;-75
2021/05/25 12:17:57;;;;;;;15.63;2.47;;;;;;;15.18;54.49;100381.41;4432450;32;20422;-75
2021/05/25 12:20:44;;;;;;;12.85;2.30;;;;;;;15.10;54.43;100386.63;4432872;32;20100;-75
2021/05/25 12:23:13;;;;;;;12.40;2.50;;;;;;;15.51;53.82;100387.91;4432406;32;20888;-74